Time;durP1;ratioP1;P1;durP2;ratioP2;P2;SDS_P1;SDS_P2;PMS_P1;PMS_P2;Temp;Humidity;BMP_temperature;BMP_pressure;BME280_temperature;BME280_humidity;BME280_pressure;Samples;Min_cycle;Max_cycle;Signal;HPM_P1;HPM_P2
2023/02/16 00:01:54;;;;;;;;;;;2.20;78.30;;;;;;5002940;28;88977;-38
2023/02/16 00:04:21;;;;;;;;;;;2.10;78.20;;;;;;5003834;28;86445;-38
2023/02/16 00:06:47;;;;;;;;;;;2.10;78.30;;;;;;5002894;28;88123;-38
2023/02/16 00:09:13;;;;;;;;;;;2.10;78.30;;;;;;5002865;28;88308;-37
2023/02/16 00:14:25;;;;;;;;;;;2.10;78.20;;;;;;5003677;28;87022;-38
2023/02/16 00:16:54;;;;;;;;;;;2.10;78.30;;;;;;5002906;28;88437;-38
2023/02/16 00:19:21;;;;;;;;;;;2.10;78.30;;;;;;5006258;28;87110;-38
2023/02/16 00:21:47;;;;;;;;;;;2.10;78.40;;;;;;5002692;28;89384;-37
2023/02/16 00:24:13;;;;;;;;;;;2.10;78.30;;;;;;5002969;28;87080;-37
2023/02/16 00:26:39;;;;;;;;;;;2.10;78.30;;;;;;5003162;28;88662;-38
2023/02/16 00:29:05;;;;;;;;;;;2.00;78.30;;;;;;5003022;28;89129;-38
2023/02/16 00:31:30;;;;;;;;;;;2.00;78.30;;;;;;5003125;28;88007;-37
2023/02/16 00:33:56;;;;;;;;;;;2.00;78.20;;;;;;5003097;28;87735;-38
2023/02/16 00:36:22;;;;;;;;;;;2.00;78.20;;;;;;5001870;28;90356;-37
2023/02/16 00:38:47;;;;;;;;;;;2.00;78.20;;;;;;5002838;28;86992;-38
2023/02/16 00:44:00;;;;;;;;;;;2.00;78.30;;;;;;5003070;28;86998;-38
2023/02/16 00:46:26;;;;;;;;;;;2.00;78.30;;;;;;5002721;28;88829;-38
2023/02/16 00:48:52;;;;;;;;;;;2.00;78.80;;;;;;5002600;28;87900;-38
2023/02/16 00:51:17;;;;;;;;;;;2.00;78.20;;;;;;5002379;28;87377;-38
2023/02/16 00:53:43;;;;;;;;;;;1.90;78.10;;;;;;5003079;28;88682;-38
2023/02/16 00:56:12;;;;;;;;;;;1.90;78.30;;;;;;5002348;28;89863;-38
2023/02/16 00:58:38;;;;;;;;;;;1.90;78.20;;;;;;5002551;28;87907;-38
2023/02/16 01:01:14;;;;;;;;;;;1.90;78.30;;;;;;5002051;28;89239;-38
2023/02/16 01:03:39;;;;;;;;;;;1.90;78.30;;;;;;5005073;28;89509;-38
2023/02/16 01:11:34;;;;;;;;;;;1.90;78.40;;;;;;5001848;28;87319;-37
2023/02/16 01:14:00;;;;;;;;;;;1.80;78.30;;;;;;5002332;28;88618;-38
2023/02/16 01:16:27;;;;;;;;;;;1.90;78.40;;;;;;5001653;28;89595;-38
2023/02/16 01:18:52;;;;;;;;;;;1.80;78.20;;;;;;5002814;28;86411;-38
2023/02/16 01:21:20;;;;;;;;;;;1.90;78.30;;;;;;5002515;28;87079;-38
2023/02/16 01:23:46;;;;;;;;;;;1.90;78.30;;;;;;5004782;28;89184;-38
2023/02/16 01:26:13;;;;;;;;;;;1.80;78.10;;;;;;5001899;28;87958;-38
2023/02/16 01:28:38;;;;;;;;;;;1.80;78.30;;;;;;5002031;28;88050;-38
2023/02/16 01:31:05;;;;;;;;;;;1.80;78.30;;;;;;5001756;28;87066;-38
2023/02/16 01:33:31;;;;;;;;;;;1.80;78.00;;;;;;5002241;28;88592;-38
2023/02/16 01:35:56;;;;;;;;;;;1.80;78.20;;;;;;5001845;28;89348;-37
2023/02/16 01:38:25;;;;;;;;;;;1.80;78.20;;;;;;5001954;28;87169;-37
2023/02/16 01:40:58;;;;;;;;;;;1.80;78.10;;;;;;5001733;28;88092;-38
2023/02/16 01:43:25;;;;;;;;;;;1.80;78.10;;;;;;5017606;28;90808;-38
2023/02/16 01:45:55;;;;;;;;;;;1.80;78.00;;;;;;5004573;28;87235;-38
2023/02/16 01:48:24;;;;;;;;;;;1.80;78.10;;;;;;5001742;28;88026;-37
2023/02/16 01:51:06;;;;;;;;;;;1.80;78.10;;;;;;5001179;28;88103;-38
2023/02/16 01:53:34;;;;;;;;;;;1.70;77.90;;;;;;5004129;28;88791;-37
2023/02/16 01:56:02;;;;;;;;;;;1.70;78.10;;;;;;5004995;28;89340;-38
2023/02/16 01:58:34;;;;;;;;;;;1.70;78.00;;;;;;5005286;28;87103;-38
2023/02/16 02:01:00;;;;;;;;;;;1.70;78.20;;;;;;5005234;28;88959;-38
2023/02/16 02:06:12;;;;;;;;;;;1.70;78.00;;;;;;5005208;28;87012;-38
2023/02/16 02:08:44;;;;;;;;;;;1.70;77.90;;;;;;5008186;28;88604;-38
2023/02/16 02:11:16;;;;;;;;;;;1.70;78.00;;;;;;5005328;28;87067;-38
2023/02/16 02:13:50;;;;;;;;;;;1.60;78.00;;;;;;5005500;28;87566;-38
2023/02/16 02:16:16;;;;;;;;;;;1.60;78.10;;;;;;5003880;28;90607;-38
2023/02/16 02:18:43;;;;;;;;;;;1.60;77.80;;;;;;5005190;28;87015;-38
2023/02/16 02:23:59;;;;;;;;;;;1.60;77.90;;;;;;5004975;28;87465;-38
2023/02/16 02:26:43;;;;;;;;;;;1.60;77.70;;;;;;5005057;28;87118;-38
2023/02/16 02:29:11;;;;;;;;;;;1.60;77.80;;;;;;5004853;28;88594;-37
2023/02/16 02:31:37;;;;;;;;;;;1.60;77.90;;;;;;5007163;28;89620;-37
2023/02/16 02:34:20;;;;;;;;;;;1.60;77.70;;;;;;5005179;28;88921;-38
2023/02/16 02:36:54;;;;;;;;;;;1.60;77.90;;;;;;5004431;28;88341;-38
2023/02/16 02:39:26;;;;;;;;;;;1.50;77.90;;;;;;5004871;28;86990;-38
2023/02/16 02:42:03;;;;;;;;;;;1.50;77.80;;;;;;5004028;28;88637;-38
2023/02/16 02:44:30;;;;;;;;;;;1.50;78.00;;;;;;5004388;28;88187;-38
2023/02/16 02:46:55;;;;;;;;;;;1.40;78.00;;;;;;5004601;28;87185;-37
2023/02/16 02:49:21;;;;;;;;;;;1.50;78.00;;;;;;5004514;28;89181;-38
2023/02/16 02:51:47;;;;;;;;;;;1.50;77.70;;;;;;5003853;28;89393;-38
2023/02/16 03:02:52;;;;;;;;;;;1.50;77.70;;;;;;5004243;28;87414;-38
2023/02/16 03:05:19;;;;;;;;;;;1.40;77.90;;;;;;5002368;28;89636;-38
2023/02/16 03:07:45;;;;;;;;;;;1.50;77.80;;;;;;5003835;28;87974;-38
2023/02/16 03:12:59;;;;;;;;;;;1.40;77.60;;;;;;5004300;28;87272;-38
2023/02/16 03:15:25;;;;;;;;;;;1.40;77.80;;;;;;5004175;28;87107;-38
2023/02/16 03:31:37;;;;;;;;;;;1.40;77.90;;;;;;5004302;28;86993;-37
2023/02/16 03:34:03;;;;;;;;;;;1.30;77.80;;;;;;5002797;28;90264;-38
2023/02/16 03:36:30;;;;;;;;;;;1.30;77.70;;;;;;5003777;28;87142;-38
2023/02/16 03:38:56;;;;;;;;;;;1.30;77.80;;;;;;5006412;28;87707;-38
2023/02/16 03:41:22;;;;;;;;;;;1.30;77.60;;;;;;5003576;28;87618;-37
2023/02/16 03:43:47;;;;;;;;;;;1.30;77.70;;;;;;5003819;28;87722;-38
2023/02/16 03:46:13;;;;;;;;;;;1.30;77.70;;;;;;5003307;28;89726;-37
2023/02/16 03:48:38;;;;;;;;;;;1.20;77.70;;;;;;5003698;28;87117;-37
2023/02/16 03:51:04;;;;;;;;;;;1.30;77.80;;;;;;5003941;28;87341;-37
2023/02/16 03:53:30;;;;;;;;;;;1.20;77.60;;;;;;5003269;28;89161;-38
2023/02/16 03:55:55;;;;;;;;;;;1.30;77.50;;;;;;5003556;28;87094;-37
2023/02/16 03:58:22;;;;;;;;;;;1.30;77.70;;;;;;5003100;28;87947;-38
2023/02/16 04:00:48;;;;;;;;;;;1.20;77.60;;;;;;5006174;28;89082;-37
2023/02/16 04:03:13;;;;;;;;;;;1.30;77.60;;;;;;5003402;28;87630;-38
2023/02/16 04:05:39;;;;;;;;;;;1.20;77.60;;;;;;5002610;28;89199;-38
2023/02/16 04:08:05;;;;;;;;;;;1.20;77.60;;;;;;5003294;28;87061;-38
2023/02/16 04:10:30;;;;;;;;;;;1.20;77.50;;;;;;5003420;28;88863;-38
2023/02/16 04:12:56;;;;;;;;;;;1.20;77.50;;;;;;5003260;28;88501;-38
2023/02/16 04:15:23;;;;;;;;;;;1.20;77.70;;;;;;5003422;28;86825;-37
2023/02/16 04:17:48;;;;;;;;;;;1.20;77.70;;;;;;5003452;28;87032;-37
2023/02/16 04:20:16;;;;;;;;;;;1.10;77.40;;;;;;5002813;28;89510;-38
2023/02/16 04:22:42;;;;;;;;;;;1.20;77.60;;;;;;5005277;28;88105;-38
2023/02/16 04:25:07;;;;;;;;;;;1.10;77.50;;;;;;5002853;28;89582;-38
2023/02/16 04:27:33;;;;;;;;;;;1.10;77.40;;;;;;5003448;28;87144;-37
2023/02/16 04:29:59;;;;;;;;;;;1.10;77.50;;;;;;5002932;28;89132;-38
2023/02/16 04:32:24;;;;;;;;;;;1.10;77.50;;;;;;5002559;28;89535;-37
2023/02/16 04:34:50;;;;;;;;;;;1.10;77.40;;;;;;5003321;28;87146;-37
2023/02/16 04:37:15;;;;;;;;;;;1.10;77.40;;;;;;5003030;28;87704;-38
2023/02/16 04:39:41;;;;;;;;;;;1.10;77.50;;;;;;5002998;28;88784;-38
2023/02/16 04:42:06;;;;;;;;;;;1.10;77.50;;;;;;5002808;28;87214;-37
2023/02/16 04:44:32;;;;;;;;;;;1.10;77.60;;;;;;5005516;28;88402;-38
2023/02/16 04:46:57;;;;;;;;;;;1.10;77.40;;;;;;5002019;28;88120;-38
2023/02/16 04:49:23;;;;;;;;;;;1.00;77.50;;;;;;5002730;28;90156;-37
2023/02/16 04:51:48;;;;;;;;;;;1.00;77.30;;;;;;5001880;28;89183;-38
2023/02/16 04:54:14;;;;;;;;;;;1.00;77.60;;;;;;5003112;28;87168;-37
2023/02/16 04:56:42;;;;;;;;;;;1.00;77.40;;;;;;5002931;28;87372;-38
2023/02/16 04:59:07;;;;;;;;;;;1.00;77.50;;;;;;5002356;28;87262;-37
2023/02/16 05:01:33;;;;;;;;;;;1.00;77.60;;;;;;5002685;28;87206;-38
2023/02/16 05:03:58;;;;;;;;;;;1.00;77.50;;;;;;5003130;28;89098;-38
2023/02/16 05:06:24;;;;;;;;;;;1.00;77.50;;;;;;5004608;28;89652;-38
2023/02/16 05:08:49;;;;;;;;;;;0.90;77.50;;;;;;5002433;28;87670;-38
2023/02/16 05:16:44;;;;;;;;;;;0.90;77.50;;;;;;5002762;28;87007;-37
2023/02/16 05:19:09;;;;;;;;;;;0.90;77.50;;;;;;5001741;28;89452;-38
2023/02/16 05:21:35;;;;;;;;;;;0.90;77.40;;;;;;5002271;28;87079;-38
2023/02/16 05:24:08;;;;;;;;;;;0.90;77.50;;;;;;5002300;28;88437;-37
2023/02/16 05:26:33;;;;;;;;;;;0.90;77.40;;;;;;5002187;28;88320;-37
2023/02/16 05:28:59;;;;;;;;;;;0.90;77.30;;;;;;5008111;28;86791;-37
2023/02/16 05:31:25;;;;;;;;;;;0.90;77.40;;;;;;5005696;28;88133;-37
2023/02/16 05:33:51;;;;;;;;;;;0.80;77.40;;;;;;5005912;28;87146;-38
2023/02/16 05:36:16;;;;;;;;;;;0.90;77.30;;;;;;5005463;28;87897;-37
2023/02/16 05:38:42;;;;;;;;;;;0.80;77.40;;;;;;5005373;28;89630;-37
2023/02/16 05:41:07;;;;;;;;;;;0.80;77.40;;;;;;5005568;28;87283;-38
2023/02/16 05:43:33;;;;;;;;;;;0.80;77.40;;;;;;5005704;28;87984;-38
2023/02/16 05:45:58;;;;;;;;;;;0.80;77.40;;;;;;5005215;28;89620;-37
2023/02/16 05:48:24;;;;;;;;;;;0.80;77.10;;;;;;5008177;28;87149;-37
2023/02/16 05:50:53;;;;;;;;;;;0.80;77.40;;;;;;5005017;28;89403;-38
2023/02/16 05:53:18;;;;;;;;;;;0.80;77.50;;;;;;5005967;28;86413;-37
2023/02/16 05:55:44;;;;;;;;;;;0.70;77.40;;;;;;5005678;28;87548;-37
2023/02/16 05:58:09;;;;;;;;;;;0.80;77.30;;;;;;5004977;28;89272;-38
2023/02/16 06:00:35;;;;;;;;;;;0.80;77.20;;;;;;5004706;28;88487;-38
2023/02/16 06:03:01;;;;;;;;;;;0.70;77.30;;;;;;5005109;28;89843;-38
2023/02/16 06:05:26;;;;;;;;;;;0.80;77.30;;;;;;5004545;28;89680;-37
2023/02/16 06:07:52;;;;;;;;;;;0.80;77.20;;;;;;5005152;28;87015;-37
2023/02/16 06:10:18;;;;;;;;;;;0.80;77.30;;;;;;5008317;28;87126;-38
2023/02/16 06:12:44;;;;;;;;;;;0.70;77.10;;;;;;5005144;28;87170;-38
2023/02/16 06:15:10;;;;;;;;;;;0.70;77.20;;;;;;5005169;28;88976;-37
2023/02/16 06:17:36;;;;;;;;;;;0.70;77.20;;;;;;5005162;28;88996;-37
2023/02/16 06:20:02;;;;;;;;;;;0.70;77.10;;;;;;5005375;28;87098;-37
2023/02/16 06:22:27;;;;;;;;;;;0.80;77.20;;;;;;5005144;28;88690;-38
2023/02/16 06:24:53;;;;;;;;;;;0.80;77.20;;;;;;5003975;28;90294;-38
2023/02/16 06:27:18;;;;;;;;;;;0.70;77.00;;;;;;5005247;28;87149;-38
2023/02/16 06:29:44;;;;;;;;;;;0.80;76.90;;;;;;5004979;28;88702;-37
2023/02/16 06:32:09;;;;;;;;;;;0.70;77.00;;;;;;5006961;28;89078;-38
2023/02/16 06:34:35;;;;;;;;;;;0.70;77.00;;;;;;5004976;28;88672;-37
2023/02/16 06:37:00;;;;;;;;;;;0.70;77.00;;;;;;5004495;28;89386;-38
2023/02/16 06:39:26;;;;;;;;;;;0.70;77.00;;;;;;5004818;28;87145;-38
2023/02/16 06:41:51;;;;;;;;;;;0.70;77.00;;;;;;5005246;28;88755;-38
2023/02/16 06:44:17;;;;;;;;;;;0.70;76.90;;;;;;5004673;28;88277;-38
2023/02/16 06:46:43;;;;;;;;;;;0.70;76.80;;;;;;5004616;28;87172;-38
2023/02/16 06:49:14;;;;;;;;;;;0.70;77.00;;;;;;5004018;28;88808;-37
2023/02/16 06:51:39;;;;;;;;;;;0.70;77.00;;;;;;5004045;28;89266;-38
2023/02/16 06:54:05;;;;;;;;;;;0.70;77.00;;;;;;5007320;28;87145;-37
2023/02/16 06:56:30;;;;;;;;;;;0.70;76.90;;;;;;5004340;28;89183;-37
2023/02/16 06:58:56;;;;;;;;;;;0.70;76.90;;;;;;5004545;28;86920;-37
2023/02/16 07:01:24;;;;;;;;;;;0.70;76.90;;;;;;5004588;28;87363;-37
2023/02/16 07:03:50;;;;;;;;;;;0.70;76.80;;;;;;5004034;28;88669;-38
2023/02/16 07:06:16;;;;;;;;;;;0.70;76.90;;;;;;5004595;28;86420;-37
2023/02/16 07:08:41;;;;;;;;;;;0.70;76.90;;;;;;5004190;28;88177;-38
2023/02/16 07:11:07;;;;;;;;;;;0.70;77.60;;;;;;5003887;28;89336;-37
2023/02/16 07:13:35;;;;;;;;;;;0.70;76.90;;;;;;5003582;28;88074;-37
2023/02/16 07:16:01;;;;;;;;;;;0.70;76.90;;;;;;5006773;28;89735;-37
2023/02/16 07:18:27;;;;;;;;;;;0.70;76.80;;;;;;5003994;28;87125;-37
2023/02/16 07:20:52;;;;;;;;;;;0.70;76.70;;;;;;5004378;28;87396;-37
2023/02/16 07:23:18;;;;;;;;;;;0.70;76.90;;;;;;5003678;28;89493;-38
2023/02/16 07:25:43;;;;;;;;;;;0.70;76.80;;;;;;5003910;28;87281;-37
2023/02/16 07:28:09;;;;;;;;;;;0.70;76.80;;;;;;5003914;28;87782;-38
2023/02/16 07:30:34;;;;;;;;;;;0.70;76.80;;;;;;5003861;28;88601;-37
2023/02/16 07:33:00;;;;;;;;;;;0.60;76.80;;;;;;5003952;28;87155;-37
2023/02/16 07:35:25;;;;;;;;;;;0.60;76.90;;;;;;5006783;28;87375;-37
2023/02/16 07:37:51;;;;;;;;;;;0.60;76.80;;;;;;5003075;28;87963;-37
2023/02/16 07:40:16;;;;;;;;;;;0.70;76.80;;;;;;5003810;28;89735;-37
2023/02/16 07:42:42;;;;;;;;;;;0.60;77.00;;;;;;5003524;28;88115;-37
2023/02/16 07:45:08;;;;;;;;;;;0.60;77.00;;;;;;5003688;28;87085;-37
2023/02/16 07:47:33;;;;;;;;;;;0.70;77.00;;;;;;5003691;28;88970;-37
2023/02/16 07:49:59;;;;;;;;;;;0.70;76.90;;;;;;5002858;28;89278;-37
2023/02/16 07:52:29;;;;;;;;;;;0.60;77.00;;;;;;5003086;28;87137;-37
2023/02/16 07:54:56;;;;;;;;;;;0.60;77.00;;;;;;5004399;28;88585;-37
2023/02/16 07:57:22;;;;;;;;;;;0.60;77.10;;;;;;5006109;28;90018;-37
2023/02/16 07:59:49;;;;;;;;;;;0.60;77.00;;;;;;5003667;28;87347;-37
2023/02/16 08:02:15;;;;;;;;;;;0.60;77.10;;;;;;5002277;28;90393;-37
2023/02/16 08:04:41;;;;;;;;;;;0.60;77.20;;;;;;5003407;28;87098;-37
2023/02/16 08:07:06;;;;;;;;;;;0.60;77.10;;;;;;5002949;28;89389;-37
2023/02/16 08:09:32;;;;;;;;;;;0.60;77.10;;;;;;5002945;28;89520;-37
2023/02/16 08:11:58;;;;;;;;;;;0.70;77.00;;;;;;5003349;28;86958;-37
2023/02/16 08:14:23;;;;;;;;;;;0.70;76.90;;;;;;5003667;28;87337;-37
2023/02/16 08:16:49;;;;;;;;;;;0.70;77.00;;;;;;5002798;28;87898;-37
2023/02/16 08:19:14;;;;;;;;;;;0.70;77.10;;;;;;5006593;28;86283;-37
2023/02/16 08:21:40;;;;;;;;;;;0.70;77.10;;;;;;5003017;28;88294;-38
2023/02/16 08:24:07;;;;;;;;;;;0.70;77.00;;;;;;5003320;28;87131;-37
2023/02/16 08:26:38;;;;;;;;;;;0.70;77.00;;;;;;5002457;28;88925;-37
2023/02/16 08:29:04;;;;;;;;;;;0.80;77.00;;;;;;5002571;28;89509;-37
2023/02/16 08:31:30;;;;;;;;;;;0.70;77.00;;;;;;5003138;28;87168;-38
2023/02/16 08:33:58;;;;;;;;;;;0.70;77.00;;;;;;5002873;28;88598;-37
2023/02/16 08:36:34;;;;;;;;;;;0.70;77.10;;;;;;5002500;28;89215;-37
2023/02/16 08:39:00;;;;;;;;;;;0.70;77.20;;;;;;5003031;28;86966;-37
2023/02/16 08:41:30;;;;;;;;;;;0.70;77.20;;;;;;5005102;28;88717;-37
2023/02/16 08:43:56;;;;;;;;;;;0.70;77.30;;;;;;5002621;28;86523;-37
2023/02/16 08:46:21;;;;;;;;;;;0.70;77.20;;;;;;5002337;28;88092;-37
2023/02/16 08:48:47;;;;;;;;;;;0.70;77.20;;;;;;5001986;28;89309;-38
2023/02/16 08:51:17;;;;;;;;;;;0.70;77.20;;;;;;5001851;28;88611;-38
2023/02/16 08:53:43;;;;;;;;;;;0.70;77.20;;;;;;5002656;28;90312;-37
2023/02/16 08:56:09;;;;;;;;;;;0.70;77.20;;;;;;5002623;28;87987;-37
2023/02/16 08:58:36;;;;;;;;;;;0.70;77.20;;;;;;5002373;28;87127;-38
2023/02/16 09:01:08;;;;;;;;;;;0.70;77.40;;;;;;5002739;28;88783;-37
2023/02/16 09:03:34;;;;;;;;;;;0.60;77.50;;;;;;5004136;28;89319;-37
2023/02/16 09:06:01;;;;;;;;;;;0.60;77.40;;;;;;5002051;28;88606;-38
2023/02/16 09:08:27;;;;;;;;;;;0.60;77.60;;;;;;5002623;28;88717;-37
2023/02/16 09:10:53;;;;;;;;;;;0.60;77.60;;;;;;5002419;28;87133;-37
2023/02/16 09:13:18;;;;;;;;;;;0.60;77.60;;;;;;5002231;28;89015;-37
2023/02/16 09:15:44;;;;;;;;;;;0.60;77.70;;;;;;5001370;28;89218;-37
2023/02/16 09:18:11;;;;;;;;;;;0.60;77.80;;;;;;5002570;28;87146;-38
2023/02/16 09:20:38;;;;;;;;;;;0.60;77.70;;;;;;5002328;28;88544;-37
2023/02/16 09:23:04;;;;;;;;;;;0.60;77.70;;;;;;5001896;28;89720;-38
2023/02/16 09:25:32;;;;;;;;;;;0.70;77.70;;;;;;5005241;28;86988;-38
2023/02/16 09:27:58;;;;;;;;;;;0.70;77.80;;;;;;5001650;28;88759;-38
2023/02/16 09:30:24;;;;;;;;;;;0.70;77.70;;;;;;5002022;28;87527;-38
2023/02/16 09:32:50;;;;;;;;;;;0.70;77.70;;;;;;5002649;28;88864;-38
2023/02/16 09:35:15;;;;;;;;;;;0.60;78.10;;;;;;5001868;28;88639;-38
2023/02/16 09:37:41;;;;;;;;;;;0.60;78.30;;;;;;5002043;28;87090;-37
2023/02/16 09:40:06;;;;;;;;;;;0.60;78.10;;;;;;5001508;28;88684;-38
2023/02/16 09:42:41;;;;;;;;;;;0.70;78.10;;;;;;5001759;28;89178;-37
2023/02/16 09:45:12;;;;;;;;;;;0.60;78.30;;;;;;5005092;28;87058;-37
2023/02/16 09:47:39;;;;;;;;;;;0.50;78.70;;;;;;5001703;28;89282;-38
2023/02/16 09:50:12;;;;;;;;;;;0.60;78.60;;;;;;5001997;28;87113;-38
2023/02/16 09:52:41;;;;;;;;;;;0.60;78.40;;;;;;5001931;28;88379;-37
2023/02/16 09:55:10;;;;;;;;;;;0.60;78.40;;;;;;5001374;28;89285;-37
2023/02/16 09:57:54;;;;;;;;;;;0.70;78.40;;;;;;5002364;28;86405;-37
2023/02/16 10:00:25;;;;;;;;;;;0.70;78.20;;;;;;5001943;28;88289;-38
2023/02/16 10:02:51;;;;;;;;;;;0.70;78.10;;;;;;5001408;28;88517;-37
2023/02/16 10:05:29;;;;;;;;;;;0.80;78.30;;;;;;5000773;28;88158;-37
2023/02/16 10:07:59;;;;;;;;;;;0.80;77.90;;;;;;5004258;28;89833;-36
2023/02/16 10:10:30;;;;;;;;;;;0.80;78.00;;;;;;5001799;28;87108;-38
2023/02/16 10:13:03;;;;;;;;;;;0.80;77.90;;;;;;5001752;28;88794;-38
2023/02/16 10:15:30;;;;;;;;;;;0.80;78.00;;;;;;5004749;28;89257;-38
2023/02/16 10:18:01;;;;;;;;;;;0.80;78.20;;;;;;5004946;28;87199;-37
2023/02/16 10:20:36;;;;;;;;;;;0.90;78.30;;;;;;5005191;28;87979;-38
2023/02/16 10:23:01;;;;;;;;;;;0.90;78.40;;;;;;5005062;28;87857;-37
2023/02/16 10:25:36;;;;;;;;;;;0.90;78.30;;;;;;5005166;28;87178;-37
2023/02/16 10:28:12;;;;;;;;;;;0.90;78.20;;;;;;5005152;28;88483;-37
2023/02/16 10:30:39;;;;;;;;;;;0.90;78.20;;;;;;5006664;28;90707;-38
2023/02/16 10:33:15;;;;;;;;;;;0.90;78.10;;;;;;5005127;28;88381;-38
2023/02/16 10:35:46;;;;;;;;;;;1.00;78.00;;;;;;5004815;28;88096;-37
2023/02/16 10:38:15;;;;;;;;;;;1.00;77.90;;;;;;5004932;28;87029;-37
2023/02/16 10:40:59;;;;;;;;;;;1.00;77.90;;;;;;5004825;28;88725;-37
2023/02/16 10:43:42;;;;;;;;;;;1.00;77.80;;;;;;5004592;28;89604;-37
2023/02/16 10:46:15;;;;;;;;;;;1.00;77.70;;;;;;5004815;28;87166;-38
2023/02/16 10:48:42;;;;;;;;;;;1.00;77.70;;;;;;5005012;28;89926;-38
2023/02/16 10:51:09;;;;;;;;;;;1.00;77.90;;;;;;5004032;28;90248;-38
2023/02/16 10:53:36;;;;;;;;;;;1.10;77.80;;;;;;5007538;28;87277;-37
2023/02/16 10:56:01;;;;;;;;;;;1.10;77.90;;;;;;5003637;28;90233;-37
2023/02/16 10:58:37;;;;;;;;;;;1.10;78.20;;;;;;5004585;28;86900;-37
2023/02/16 11:01:08;;;;;;;;;;;1.10;78.00;;;;;;5004455;28;88981;-38
2023/02/16 11:03:39;;;;;;;;;;;1.10;78.90;;;;;;5003955;28;89220;-38
2023/02/16 11:06:16;;;;;;;;;;;1.20;78.30;;;;;;5003794;28;86946;-38
2023/02/16 11:08:48;;;;;;;;;;;1.20;78.30;;;;;;5004391;28;88887;-38
2023/02/16 11:11:15;;;;;;;;;;;1.20;78.40;;;;;;5003964;28;89263;-38
2023/02/16 11:13:41;;;;;;;;;;;1.20;78.50;;;;;;5004682;28;86388;-38
2023/02/16 11:16:12;;;;;;;;;;;1.20;78.60;;;;;;5006846;28;87991;-38
2023/02/16 11:18:45;;;;;;;;;;;1.20;78.30;;;;;;5003993;28;87190;-37
2023/02/16 11:21:11;;;;;;;;;;;1.20;78.50;;;;;;5003789;28;87978;-38
2023/02/16 11:23:43;;;;;;;;;;;1.20;78.40;;;;;;5003881;28;89418;-38
2023/02/16 11:26:09;;;;;;;;;;;1.30;78.70;;;;;;5002931;28;87126;-38
2023/02/16 11:28:34;;;;;;;;;;;1.30;78.60;;;;;;5004170;28;87380;-38
2023/02/16 11:31:14;;;;;;;;;;;1.30;78.90;;;;;;5003566;28;89202;-38
2023/02/16 11:33:40;;;;;;;;;;;1.30;78.90;;;;;;5004015;28;87177;-38
2023/02/16 11:36:17;;;;;;;;;;;1.30;78.80;;;;;;5003904;28;89144;-38
2023/02/16 11:38:54;;;;;;;;;;;1.40;78.70;;;;;;5006999;28;88692;-38
2023/02/16 11:41:22;;;;;;;;;;;1.40;79.20;;;;;;5003857;28;88395;-38
2023/02/16 11:43:48;;;;;;;;;;;1.40;78.80;;;;;;5003494;28;88135;-38
2023/02/16 11:46:15;;;;;;;;;;;1.40;78.90;;;;;;5002995;28;88172;-38
2023/02/16 11:48:41;;;;;;;;;;;1.40;78.70;;;;;;5003619;28;89600;-38
2023/02/16 11:51:08;;;;;;;;;;;1.40;79.00;;;;;;5003171;28;89644;-38
2023/02/16 11:53:35;;;;;;;;;;;1.50;78.90;;;;;;5003536;28;87003;-38
2023/02/16 11:56:22;;;;;;;;;;;1.50;79.20;;;;;;5003395;28;88400;-38
2023/02/16 11:59:06;;;;;;;;;;;1.50;78.90;;;;;;5006223;28;89394;-38
2023/02/16 12:02:01;;;;;;;;;;;1.50;79.20;;;;;;5003314;28;88940;-38
2023/02/16 12:04:45;;;;;;;;;;;1.50;79.30;;;;;;4966061;28;88606;-38
2023/02/16 12:07:19;;;;;;;;;;;1.60;79.20;;;;;;5003039;28;87046;-38
2023/02/16 12:09:53;;;;;;;;;;;1.60;79.60;;;;;;5003258;28;88487;-38
2023/02/16 12:12:30;;;;;;;;;;;1.60;79.30;;;;;;5002445;28;90371;-39
2023/02/16 12:14:56;;;;;;;;;;;1.60;78.90;;;;;;5003479;28;86998;-38
2023/02/16 12:17:26;;;;;;;;;;;1.60;79.40;;;;;;5003442;28;88649;-38
2023/02/16 12:19:59;;;;;;;;;;;1.70;79.40;;;;;;5002814;28;89556;-38
2023/02/16 12:22:25;;;;;;;;;;;1.70;79.20;;;;;;5006164;28;87090;-38
2023/02/16 12:25:09;;;;;;;;;;;1.70;79.10;;;;;;5002713;28;89574;-38
2023/02/16 12:27:46;;;;;;;;;;;1.70;79.00;;;;;;5002920;28;87159;-38
2023/02/16 12:30:32;;;;;;;;;;;1.70;79.30;;;;;;5003529;28;87669;-38
2023/02/16 12:33:00;;;;;;;;;;;1.80;79.20;;;;;;5002593;28;89403;-38
2023/02/16 12:35:38;;;;;;;;;;;1.80;79.50;;;;;;5003254;28;87156;-38
2023/02/16 12:38:09;;;;;;;;;;;1.80;79.50;;;;;;5002051;28;87991;-38
2023/02/16 12:40:34;;;;;;;;;;;1.80;79.30;;;;;;5002586;28;89640;-38
2023/02/16 12:43:18;;;;;;;;;;;1.80;79.30;;;;;;5003198;28;87093;-38
2023/02/16 12:45:45;;;;;;;;;;;1.90;79.40;;;;;;5005418;28;88571;-38
2023/02/16 12:48:10;;;;;;;;;;;1.90;79.60;;;;;;5002803;28;86986;-38
2023/02/16 12:50:38;;;;;;;;;;;1.90;79.60;;;;;;5002446;28;88698;-38
2023/02/16 12:53:13;;;;;;;;;;;1.90;79.50;;;;;;5002248;28;89638;-38
2023/02/16 12:55:42;;;;;;;;;;;1.90;79.30;;;;;;5003123;28;86283;-38
2023/02/16 12:58:14;;;;;;;;;;;2.00;79.30;;;;;;5002697;28;88055;-38
2023/02/16 13:00:48;;;;;;;;;;;2.00;79.50;;;;;;5002652;28;87956;-38
2023/02/16 13:03:26;;;;;;;;;;;2.00;79.40;;;;;;5001808;28;88492;-38
2023/02/16 13:05:57;;;;;;;;;;;2.10;79.50;;;;;;5002125;28;88859;-38
2023/02/16 13:08:28;;;;;;;;;;;2.10;79.40;;;;;;5005248;28;89869;-38
2023/02/16 13:11:02;;;;;;;;;;;2.10;79.60;;;;;;5002580;28;88796;-38
2023/02/16 13:13:30;;;;;;;;;;;2.10;79.50;;;;;;5002000;28;89282;-38
2023/02/16 13:15:56;;;;;;;;;;;2.10;79.50;;;;;;5002243;28;87063;-38
2023/02/16 13:18:24;;;;;;;;;;;2.20;79.90;;;;;;5002465;28;88921;-38
2023/02/16 13:20:52;;;;;;;;;;;2.20;79.80;;;;;;5002577;28;88956;-38
2023/02/16 13:23:20;;;;;;;;;;;2.20;79.90;;;;;;5002116;28;87184;-38
2023/02/16 13:25:46;;;;;;;;;;;2.20;80.00;;;;;;5002275;28;88564;-38
2023/02/16 13:28:24;;;;;;;;;;;2.30;79.90;;;;;;5001247;28;90198;-38
2023/02/16 13:31:05;;;;;;;;;;;2.20;79.70;;;;;;5005164;28;86873;-38
2023/02/16 13:33:46;;;;;;;;;;;2.30;79.80;;;;;;5002107;28;89281;-38
2023/02/16 13:36:17;;;;;;;;;;;2.30;80.00;;;;;;5002212;28;87069;-38
2023/02/16 13:38:55;;;;;;;;;;;2.30;79.80;;;;;;5002071;28;87406;-38
2023/02/16 13:41:54;;;;;;;;;;;2.30;79.60;;;;;;5001821;28;88345;-38
2023/02/16 13:44:22;;;;;;;;;;;2.40;79.80;;;;;;4978207;28;87302;-38
2023/02/16 13:46:51;;;;;;;;;;;2.40;79.80;;;;;;5002443;28;87811;-38
2023/02/16 13:49:41;;;;;;;;;;;2.40;79.80;;;;;;5003204;28;89267;-38
2023/02/16 13:52:25;;;;;;;;;;;2.50;79.90;;;;;;5005150;28;87044;-38
2023/02/16 13:54:51;;;;;;;;;;;2.50;79.90;;;;;;5007539;28;89453;-38
2023/02/16 13:57:36;;;;;;;;;;;2.50;79.70;;;;;;5005474;28;87116;-38
2023/02/16 14:00:04;;;;;;;;;;;2.50;79.60;;;;;;5005382;28;87925;-38
2023/02/16 14:02:48;;;;;;;;;;;2.60;79.80;;;;;;5005006;28;88283;-38
2023/02/16 14:05:22;;;;;;;;;;;2.60;79.80;;;;;;5004982;28;87254;-38
2023/02/16 14:08:07;;;;;;;;;;;2.60;79.90;;;;;;5005140;28;88753;-38
2023/02/16 14:10:57;;;;;;;;;;;2.60;80.00;;;;;;5004942;28;89011;-38
2023/02/16 14:13:35;;;;;;;;;;;2.70;80.00;;;;;;5005846;28;86246;-38
2023/02/16 14:16:21;;;;;;;;;;;2.70;80.00;;;;;;5007711;28;88552;-38
2023/02/16 14:18:46;;;;;;;;;;;2.70;80.10;;;;;;4997514;28;87415;-38
2023/02/16 14:21:17;;;;;;;;;;;2.80;80.00;;;;;;5004581;28;88740;-38
2023/02/16 14:23:42;;;;;;;;;;;2.80;80.00;;;;;;5004758;28;88090;-38
2023/02/16 14:26:12;;;;;;;;;;;2.80;80.00;;;;;;5005260;28;87489;-38
2023/02/16 14:28:56;;;;;;;;;;;2.80;79.90;;;;;;5004768;28;88765;-38
2023/02/16 14:31:22;;;;;;;;;;;2.90;80.30;;;;;;5004793;28;87947;-38
2023/02/16 14:34:06;;;;;;;;;;;2.90;80.20;;;;;;5005043;28;87074;-38
2023/02/16 14:36:32;;;;;;;;;;;2.90;80.00;;;;;;5004867;28;89010;-38
2023/02/16 14:38:58;;;;;;;;;;;2.90;80.30;;;;;;5007923;28;88691;-38
2023/02/16 14:41:28;;;;;;;;;;;3.00;80.30;;;;;;5004306;28;88716;-38
2023/02/16 14:44:03;;;;;;;;;;;3.00;80.10;;;;;;5004381;28;89607;-38
2023/02/16 14:46:46;;;;;;;;;;;3.00;80.10;;;;;;5004034;28;88036;-38
2023/02/16 14:49:27;;;;;;;;;;;3.00;80.30;;;;;;5004625;28;89720;-38
2023/02/16 14:51:55;;;;;;;;;;;3.10;80.50;;;;;;5003663;28;89167;-38
2023/02/16 14:54:40;;;;;;;;;;;3.10;80.50;;;;;;5004436;28;87108;-38
2023/02/16 14:57:13;;;;;;;;;;;3.10;80.30;;;;;;5004572;28;88629;-39
2023/02/16 14:59:58;;;;;;;;;;;3.10;80.60;;;;;;5003561;28;89523;-38
2023/02/16 15:02:25;;;;;;;;;;;3.10;80.40;;;;;;5006847;28;87171;-38
2023/02/16 15:04:51;;;;;;;;;;;3.20;80.50;;;;;;5004547;28;88450;-38
2023/02/16 15:07:17;;;;;;;;;;;3.20;80.60;;;;;;5003951;28;87222;-38
2023/02/16 15:09:43;;;;;;;;;;;3.20;80.60;;;;;;5004288;28;88663;-38
2023/02/16 15:12:22;;;;;;;;;;;3.30;81.30;;;;;;5003280;28;90583;-38
2023/02/16 15:14:49;;;;;;;;;;;3.30;80.80;;;;;;5004005;28;87188;-38
2023/02/16 15:17:24;;;;;;;;;;;3.30;80.30;;;;;;5003952;28;90171;-38
2023/02/16 15:19:50;;;;;;;;;;;3.30;80.70;;;;;;5003919;28;89543;-38
2023/02/16 15:22:21;;;;;;;;;;;3.40;80.70;;;;;;5003935;28;87165;-38
2023/02/16 15:25:00;;;;;;;;;;;3.40;80.70;;;;;;5006765;28;88739;-38
2023/02/16 15:27:27;;;;;;;;;;;3.40;81.10;;;;;;5003919;28;87015;-38
2023/02/16 15:30:28;;;;;;;;;;;3.40;81.10;;;;;;5004232;28;87547;-38